createdAt,value
2018-07-09T00:01:18.381Z,2.47
2018-07-09T00:03:46.758Z,2.70
2018-07-09T00:06:15.082Z,2.50
2018-07-09T00:08:43.381Z,2.30
2018-07-09T00:11:11.681Z,2.70
2018-07-09T00:13:39.981Z,2.47
2018-07-09T00:16:08.305Z,2.70
2018-07-09T00:18:36.674Z,2.63
2018-07-09T00:21:04.964Z,2.70
2018-07-09T00:23:33.359Z,2.70
2018-07-09T00:26:01.714Z,2.30
2018-07-09T00:28:30.124Z,2.70
2018-07-09T00:30:58.432Z,2.67
2018-07-09T00:33:26.740Z,2.07
2018-07-09T00:35:55.059Z,2.30
2018-07-09T00:38:23.448Z,2.03
2018-07-09T00:40:51.746Z,2.10
2018-07-09T00:43:20.075Z,2.20
2018-07-09T00:45:48.424Z,2.20
2018-07-09T00:48:16.817Z,2.40
2018-07-09T00:50:45.155Z,2.27
2018-07-09T00:53:13.498Z,2.50
2018-07-09T00:55:41.825Z,2.60
2018-07-09T00:58:10.273Z,2.40
2018-07-09T01:00:38.573Z,2.02
2018-07-09T01:03:06.877Z,2.73
2018-07-09T01:05:35.133Z,2.60
2018-07-09T01:08:03.533Z,2.60
2018-07-09T01:10:31.961Z,2.70
2018-07-09T01:13:00.415Z,2.60
2018-07-09T01:15:28.791Z,3.00
2018-07-09T01:17:57.114Z,2.43
2018-07-09T01:20:25.970Z,2.47
2018-07-09T01:22:54.256Z,2.60
2018-07-09T01:25:26.711Z,2.53
2018-07-09T01:27:55.156Z,2.60
2018-07-09T01:30:23.602Z,2.60
2018-07-09T01:32:51.973Z,2.10
2018-07-09T01:35:20.268Z,2.00
2018-07-09T01:37:48.710Z,2.17
2018-07-09T01:40:17.123Z,2.23
2018-07-09T01:42:45.448Z,2.10
2018-07-09T01:45:13.843Z,2.37
2018-07-09T01:47:42.144Z,2.33
2018-07-09T01:50:10.582Z,2.20
2018-07-09T01:52:38.936Z,2.97
2018-07-09T01:55:07.242Z,2.43
2018-07-09T01:57:35.546Z,2.60
2018-07-09T02:00:04.419Z,2.60
2018-07-09T02:02:32.904Z,2.67
2018-07-09T02:05:01.227Z,2.50
2018-07-09T02:07:29.552Z,2.47
2018-07-09T02:09:57.830Z,2.30
2018-07-09T02:12:26.257Z,2.07
2018-07-09T02:14:54.556Z,1.93
2018-07-09T02:17:22.937Z,1.92
2018-07-09T02:19:51.215Z,2.20
2018-07-09T02:22:19.555Z,2.00
2018-07-09T02:24:47.890Z,2.07
2018-07-09T02:27:16.431Z,2.80
2018-07-09T02:29:44.768Z,2.07
2018-07-09T02:32:13.100Z,1.90
2018-07-09T02:34:41.139Z,2.07
2018-07-09T02:37:09.480Z,2.43
2018-07-09T02:39:37.758Z,2.05
2018-07-09T02:42:06.073Z,2.47
2018-07-09T02:44:34.408Z,2.30
2018-07-09T02:47:03.089Z,2.10
2018-07-09T02:49:31.573Z,2.35
2018-07-09T02:51:59.988Z,2.33
2018-07-09T02:54:28.267Z,1.97
2018-07-09T02:56:56.609Z,2.37
2018-07-09T02:59:24.859Z,1.87
2018-07-09T03:01:53.004Z,2.40
2018-07-09T03:04:21.430Z,2.10
2018-07-09T03:06:49.704Z,2.07
2018-07-09T03:09:18.144Z,2.23
2018-07-09T03:11:46.475Z,2.40
2018-07-09T03:14:14.785Z,1.93
2018-07-09T03:16:43.174Z,2.23
2018-07-09T03:19:11.490Z,2.50
2018-07-09T03:29:10.407Z,2.70
2018-07-09T03:31:38.708Z,2.57
2018-07-09T03:34:07.018Z,2.13
2018-07-09T03:36:35.329Z,2.00
2018-07-09T03:39:04.835Z,2.20
2018-07-09T03:41:33.407Z,2.43
2018-07-09T03:44:01.831Z,2.47
2018-07-09T03:46:30.155Z,2.50
2018-07-09T03:48:58.527Z,2.20
2018-07-09T03:51:26.844Z,2.60
2018-07-09T03:53:55.156Z,2.60
2018-07-09T03:56:23.157Z,2.60
2018-07-09T03:58:51.570Z,2.40
2018-07-09T04:01:20.013Z,2.50
2018-07-09T04:03:48.327Z,2.50
2018-07-09T04:06:16.658Z,2.15
2018-07-09T04:08:44.987Z,2.30
2018-07-09T04:11:13.379Z,2.00
2018-07-09T04:13:41.697Z,2.20
2018-07-09T04:16:10.020Z,2.37
2018-07-09T04:18:38.274Z,2.47
2018-07-09T04:21:06.567Z,2.20
2018-07-09T04:23:34.891Z,2.20
2018-07-09T04:26:03.250Z,2.60
2018-07-09T04:28:31.565Z,2.40
2018-07-09T04:30:59.864Z,2.37
2018-07-09T04:33:28.198Z,2.30
2018-07-09T04:35:56.468Z,3.27
2018-07-09T04:38:24.833Z,2.10
2018-07-09T04:40:53.211Z,2.13
2018-07-09T04:43:21.576Z,2.10
2018-07-09T04:45:49.857Z,2.10
2018-07-09T04:48:18.201Z,2.50
2018-07-09T04:50:46.530Z,2.17
2018-07-09T04:53:14.850Z,2.40
2018-07-09T04:55:43.123Z,2.20
2018-07-09T04:58:11.426Z,2.67
2018-07-09T05:00:39.749Z,2.50
2018-07-09T05:03:08.034Z,2.80
2018-07-09T05:05:36.475Z,2.87
2018-07-09T05:08:04.896Z,2.50
2018-07-09T05:10:33.297Z,2.63
2018-07-09T05:13:01.713Z,2.50
2018-07-09T05:15:29.991Z,2.90
2018-07-09T05:17:58.253Z,2.57
2018-07-09T05:20:26.516Z,2.70
2018-07-09T05:22:54.895Z,2.60
2018-07-09T05:25:23.343Z,2.67
2018-07-09T05:27:51.732Z,2.50
2018-07-09T05:30:20.186Z,2.80
2018-07-09T05:32:48.507Z,2.67
2018-07-09T05:35:16.921Z,2.50
2018-07-09T05:37:45.219Z,2.30
2018-07-09T05:40:13.926Z,2.70
2018-07-09T05:42:42.001Z,2.43
2018-07-09T05:45:10.351Z,2.70
2018-07-09T05:47:38.703Z,2.70
2018-07-09T05:50:07.041Z,2.30
2018-07-09T05:52:35.352Z,2.50
2018-07-09T05:55:03.841Z,2.65
2018-07-09T05:57:32.191Z,2.90
2018-07-09T06:00:00.516Z,2.90
2018-07-09T06:02:29.000Z,2.67
2018-07-09T06:09:12.211Z,2.50
2018-07-09T06:11:40.511Z,2.60
2018-07-09T06:14:08.879Z,2.90
2018-07-09T06:16:37.309Z,2.40
2018-07-09T06:19:05.951Z,2.90
2018-07-09T06:21:34.344Z,3.67
2018-07-09T06:24:02.710Z,2.90
2018-07-09T06:26:31.019Z,2.70
2018-07-09T06:28:59.061Z,2.60
2018-07-09T06:31:27.384Z,2.60
2018-07-09T06:33:55.713Z,2.77
2018-07-09T06:36:24.290Z,2.50
2018-07-09T06:38:52.841Z,2.70
2018-07-09T06:41:21.418Z,3.40
2018-07-09T06:43:49.777Z,2.60
2018-07-09T06:46:18.134Z,2.20
2018-07-09T06:48:52.123Z,2.80
2018-07-09T06:51:21.262Z,3.07
2018-07-09T06:53:49.659Z,2.57
2018-07-09T06:56:18.014Z,3.13
2018-07-09T06:58:46.627Z,2.70
2018-07-09T07:01:15.022Z,2.53
2018-07-09T07:03:43.387Z,2.43
2018-07-09T07:06:11.827Z,2.90
2018-07-09T07:08:40.274Z,2.80
2018-07-09T07:11:08.649Z,2.90
2018-07-09T07:13:37.140Z,3.00
2018-07-09T07:16:05.644Z,2.40
2018-07-09T07:18:34.039Z,2.80
2018-07-09T07:21:02.413Z,2.40
2018-07-09T07:23:30.817Z,2.60
2018-07-09T07:25:59.259Z,3.00
2018-07-09T07:28:27.661Z,2.77
2018-07-09T07:30:55.716Z,2.57
2018-07-09T07:33:24.257Z,2.50
2018-07-09T07:35:52.878Z,2.80
2018-07-09T07:38:21.429Z,2.70
2018-07-09T07:40:49.815Z,3.30
2018-07-09T07:43:18.165Z,2.87
2018-07-09T07:45:47.288Z,3.13
2018-07-09T07:48:15.610Z,2.90
2018-07-09T07:50:43.935Z,2.47
2018-07-09T07:53:12.356Z,2.40
2018-07-09T07:55:40.688Z,2.60
2018-07-09T07:58:09.092Z,3.10
2018-07-09T08:00:37.471Z,2.60
2018-07-09T08:03:06.033Z,2.90
2018-07-09T08:05:34.515Z,3.10
2018-07-09T08:08:02.882Z,2.60
2018-07-09T08:10:31.288Z,3.10
2018-07-09T08:13:01.004Z,2.77
2018-07-09T08:15:28.040Z,2.70
2018-07-09T08:17:56.411Z,2.83
2018-07-09T08:20:24.913Z,2.77
2018-07-09T08:22:53.413Z,2.55
2018-07-09T08:25:21.753Z,2.83
2018-07-09T08:27:50.263Z,2.80
2018-07-09T08:30:18.612Z,3.33
2018-07-09T08:32:46.984Z,2.33
2018-07-09T08:35:15.478Z,2.80
2018-07-09T08:37:49.839Z,3.20
2018-07-09T08:40:18.280Z,3.27
2018-07-09T08:42:46.629Z,2.87
2018-07-09T08:45:15.066Z,3.50
2018-07-09T08:47:43.489Z,3.20
2018-07-09T08:50:11.818Z,3.50
2018-07-09T08:52:40.236Z,3.40
2018-07-09T08:55:08.658Z,3.50
2018-07-09T08:57:37.123Z,3.53
2018-07-09T09:00:05.566Z,3.13
2018-07-09T09:02:33.940Z,3.67
2018-07-09T09:05:02.343Z,3.57
2018-07-09T09:07:30.749Z,3.40
2018-07-09T09:09:59.227Z,3.80
2018-07-09T09:12:28.290Z,3.37
2018-07-09T09:14:56.648Z,4.20
2018-07-09T09:17:25.004Z,4.03
2018-07-09T09:19:53.442Z,4.53
2018-07-09T09:22:21.866Z,4.10
2018-07-09T09:24:50.173Z,4.75
2018-07-09T09:27:18.733Z,4.40
2018-07-09T09:29:47.057Z,3.70
2018-07-09T09:32:15.400Z,5.30
2018-07-09T09:34:43.707Z,4.67
2018-07-09T09:37:11.997Z,4.43
2018-07-09T09:39:40.325Z,4.10
2018-07-09T09:42:09.121Z,4.90
2018-07-09T09:44:37.744Z,4.87
2018-07-09T09:47:06.094Z,4.87
2018-07-09T09:49:34.378Z,3.90
2018-07-09T09:52:02.730Z,4.37
2018-07-09T09:54:31.089Z,4.03
2018-07-09T09:56:59.695Z,4.78
2018-07-09T09:59:28.357Z,4.13
2018-07-09T10:01:56.847Z,4.30
2018-07-09T10:04:25.135Z,4.87
2018-07-09T10:06:54.481Z,5.10
2018-07-09T10:09:22.807Z,4.40
2018-07-09T10:11:51.151Z,4.13
2018-07-09T10:14:19.511Z,4.70
2018-07-09T10:16:47.835Z,4.97
2018-07-09T10:19:16.284Z,4.40
2018-07-09T10:21:44.648Z,4.70
2018-07-09T10:24:12.962Z,4.70
2018-07-09T10:26:41.292Z,4.67
2018-07-09T10:29:09.665Z,5.22
2018-07-09T10:31:38.170Z,4.47
2018-07-09T10:34:06.512Z,5.00
2018-07-09T10:36:34.954Z,4.10
2018-07-09T10:39:03.857Z,4.67
2018-07-09T10:41:32.175Z,4.43
2018-07-09T10:44:00.426Z,4.90
2018-07-09T10:46:28.792Z,4.70
2018-07-09T10:48:57.230Z,4.70
2018-07-09T10:51:25.550Z,3.83
2018-07-09T10:53:53.949Z,4.80
2018-07-09T10:56:22.357Z,4.30
2018-07-09T10:58:51.766Z,5.10
2018-07-09T11:01:21.611Z,4.00
2018-07-09T11:03:50.634Z,4.03
2018-07-09T11:06:19.202Z,3.57
2018-07-09T11:08:48.022Z,4.40
2018-07-09T11:11:16.870Z,4.30
2018-07-09T11:13:45.827Z,4.80
2018-07-09T11:16:14.793Z,3.80
2018-07-09T11:18:43.690Z,4.47
2018-07-09T11:21:12.553Z,4.50
2018-07-09T11:23:41.400Z,3.90
2018-07-09T11:26:10.353Z,4.00
2018-07-09T11:28:39.298Z,3.50
2018-07-09T11:31:08.661Z,4.00
2018-07-09T11:33:37.993Z,3.75
2018-07-09T11:36:07.474Z,4.57
2018-07-09T11:38:37.298Z,4.30
2018-07-09T11:41:06.619Z,4.20
2018-07-09T11:43:35.520Z,4.70
2018-07-09T11:46:04.643Z,4.20
2018-07-09T11:48:33.309Z,4.73
2018-07-09T11:51:02.331Z,5.23
2018-07-09T11:53:31.057Z,4.20
2018-07-09T11:56:00.034Z,4.28
2018-07-09T11:58:29.253Z,4.43
2018-07-09T12:00:58.208Z,4.03
2018-07-09T12:03:27.013Z,3.70
2018-07-09T12:05:56.359Z,4.40
2018-07-09T12:08:25.306Z,4.03
2018-07-09T12:10:54.138Z,3.83
2018-07-09T12:13:23.039Z,4.40
2018-07-09T12:15:51.307Z,3.70
2018-07-09T12:18:19.588Z,3.83
2018-07-09T12:20:47.814Z,4.20
2018-07-09T12:23:16.138Z,3.87
2018-07-09T12:25:44.456Z,4.40
2018-07-09T12:28:12.852Z,3.72
2018-07-09T12:30:41.268Z,4.00
2018-07-09T12:33:09.582Z,3.70
2018-07-09T12:35:39.017Z,4.07
2018-07-09T12:38:07.950Z,4.13
2018-07-09T12:40:36.265Z,3.60
2018-07-09T12:43:04.599Z,4.10
2018-07-09T12:45:32.924Z,3.77
2018-07-09T12:48:01.272Z,3.23
2018-07-09T12:50:29.842Z,4.37
2018-07-09T12:52:58.153Z,3.80
2018-07-09T12:55:26.556Z,3.43
2018-07-09T12:57:54.936Z,3.43
2018-07-09T13:00:23.046Z,4.70
2018-07-09T13:02:51.331Z,2.80
2018-07-09T13:05:19.595Z,3.17
2018-07-09T13:07:47.912Z,3.40
2018-07-09T13:10:16.201Z,3.53
2018-07-09T13:12:44.520Z,3.20
2018-07-09T13:15:12.851Z,3.43
2018-07-09T13:17:41.383Z,3.40
2018-07-09T13:20:09.742Z,4.53
2018-07-09T13:22:38.117Z,3.17
2018-07-09T13:25:06.587Z,2.80
2018-07-09T13:27:34.920Z,2.83
2018-07-09T13:30:03.273Z,2.60
2018-07-09T13:32:31.670Z,2.67
2018-07-09T13:35:00.066Z,2.80
2018-07-09T13:37:28.400Z,2.40
2018-07-09T13:39:56.882Z,3.17
2018-07-09T13:42:25.697Z,2.83
2018-07-09T13:44:54.053Z,2.27
2018-07-09T13:47:22.333Z,2.40
2018-07-09T13:49:50.679Z,2.93
2018-07-09T13:52:19.000Z,2.87
2018-07-09T13:54:47.423Z,2.40
2018-07-09T13:57:15.787Z,2.23
2018-07-09T13:59:44.128Z,2.70
2018-07-09T14:02:12.435Z,2.60
2018-07-09T14:04:40.799Z,2.50
2018-07-09T14:07:09.134Z,2.87
2018-07-09T14:09:37.520Z,2.70
2018-07-09T14:12:05.942Z,2.43
2018-07-09T14:14:34.288Z,3.07
2018-07-09T14:17:02.848Z,2.60
2018-07-09T14:20:39.586Z,2.97
2018-07-09T14:23:08.978Z,3.00
2018-07-09T14:25:37.526Z,2.80
2018-07-09T14:28:05.963Z,2.70
2018-07-09T14:30:34.503Z,3.17
2018-07-09T14:33:04.726Z,2.97
2018-07-09T14:35:33.045Z,2.57
2018-07-09T14:38:01.477Z,3.00
2018-07-09T14:40:29.827Z,2.70
2018-07-09T14:42:58.135Z,3.50
2018-07-09T14:45:26.684Z,3.20
2018-07-09T14:47:55.095Z,3.30
2018-07-09T14:50:23.590Z,3.00
2018-07-09T14:52:51.911Z,3.20
2018-07-09T14:55:20.425Z,2.83
2018-07-09T14:57:48.751Z,2.70
2018-07-09T15:00:17.093Z,2.87
2018-07-09T15:02:45.430Z,2.53
2018-07-09T15:05:13.897Z,2.57
2018-07-09T15:07:42.203Z,2.60
2018-07-09T15:10:10.621Z,2.53
2018-07-09T15:12:39.014Z,2.80
2018-07-09T15:15:07.376Z,2.63
2018-07-09T15:17:35.821Z,2.60
2018-07-09T15:20:04.304Z,2.90
2018-07-09T15:22:32.574Z,3.27
2018-07-09T15:25:00.875Z,2.80
2018-07-09T15:27:29.865Z,3.20
2018-07-09T15:29:58.228Z,3.00
2018-07-09T15:32:29.980Z,2.40
2018-07-09T15:34:58.301Z,2.90
2018-07-09T15:37:27.011Z,2.97
2018-07-09T15:39:55.483Z,2.97
2018-07-09T15:42:23.837Z,3.03
2018-07-09T15:44:52.281Z,2.63
2018-07-09T15:47:20.577Z,2.93
2018-07-09T15:49:48.949Z,2.80
2018-07-09T15:52:17.147Z,2.77
2018-07-09T15:54:45.578Z,5.70
2018-07-09T15:57:13.946Z,2.33
2018-07-09T15:59:42.294Z,2.40
2018-07-09T16:02:10.615Z,2.67
2018-07-09T16:04:38.982Z,2.67
2018-07-09T16:07:07.295Z,2.50
2018-07-09T16:09:35.698Z,2.40
2018-07-09T16:12:04.184Z,3.52
2018-07-09T16:14:32.264Z,2.53
2018-07-09T16:17:00.557Z,2.50
2018-07-09T16:19:28.910Z,3.10
2018-07-09T16:31:49.004Z,2.60
2018-07-09T16:34:17.409Z,2.60
2018-07-09T16:36:45.723Z,2.03
2018-07-09T16:39:14.077Z,2.20
2018-07-09T16:41:42.446Z,2.13
2018-07-09T16:44:10.842Z,2.30
2018-07-09T16:46:39.154Z,2.07
2018-07-09T16:49:07.780Z,2.30
2018-07-09T16:51:36.389Z,1.93
2018-07-09T16:54:04.803Z,2.30
2018-07-09T16:56:33.464Z,2.57
2018-07-09T16:59:01.944Z,2.57
2018-07-09T17:01:30.336Z,2.23
2018-07-09T17:04:06.426Z,2.30
2018-07-09T17:06:34.807Z,2.08
2018-07-09T17:09:03.229Z,2.10
2018-07-09T17:11:31.651Z,1.90
2018-07-09T17:14:01.335Z,2.30
2018-07-09T17:16:29.709Z,2.02
2018-07-09T17:18:58.203Z,2.40
2018-07-09T17:21:26.525Z,2.50
2018-07-09T17:23:54.869Z,2.50
2018-07-09T17:26:23.284Z,2.03
2018-07-09T17:28:51.683Z,2.40
2018-07-09T17:31:20.043Z,2.37
2018-07-09T17:33:48.436Z,2.40
2018-07-09T17:36:16.760Z,2.40
2018-07-09T17:38:45.243Z,2.30
2018-07-09T17:41:13.539Z,2.63
2018-07-09T17:43:41.938Z,2.67
2018-07-09T17:46:10.274Z,2.60
2018-07-09T17:48:38.766Z,2.70
2018-07-09T17:51:07.136Z,2.67
2018-07-09T17:53:35.501Z,2.10
2018-07-09T17:56:03.874Z,2.40
2018-07-09T17:58:32.147Z,2.37
2018-07-09T18:01:00.632Z,2.57
2018-07-09T18:03:28.974Z,2.10
2018-07-09T18:05:57.454Z,2.50
2018-07-09T18:08:25.785Z,3.10
2018-07-09T18:10:54.302Z,2.58
2018-07-09T18:13:22.599Z,2.40
2018-07-09T18:15:51.056Z,2.87
2018-07-09T18:18:19.357Z,2.77
2018-07-09T18:20:47.732Z,2.47
2018-07-09T18:23:16.109Z,2.40
2018-07-09T18:25:44.538Z,2.60
2018-07-09T18:28:12.852Z,2.77
2018-07-09T18:30:41.178Z,2.60
2018-07-09T18:33:09.596Z,2.77
2018-07-09T18:35:38.009Z,2.70
2018-07-09T18:38:06.348Z,2.53
2018-07-09T18:40:34.692Z,2.70
2018-07-09T18:43:03.385Z,2.57
2018-07-09T18:45:37.702Z,2.77
2018-07-09T18:48:06.237Z,2.57
2018-07-09T18:50:34.521Z,2.47
2018-07-09T18:53:02.863Z,2.67
2018-07-09T18:55:31.206Z,2.20
2018-07-09T18:57:59.741Z,2.80
2018-07-09T19:00:28.103Z,2.90
2018-07-09T19:02:56.487Z,2.63
2018-07-09T19:05:31.613Z,2.98
2018-07-09T19:07:59.975Z,2.60
2018-07-09T19:10:28.555Z,3.20
2018-07-09T19:12:56.932Z,2.30
2018-07-09T19:15:26.642Z,2.80
2018-07-09T19:18:15.192Z,2.57
2018-07-09T19:22:23.055Z,2.17
2018-07-09T19:24:50.310Z,2.80
2018-07-09T19:27:18.557Z,2.57
2018-07-09T19:29:45.863Z,2.30
2018-07-09T19:32:14.063Z,2.53
2018-07-09T19:34:42.448Z,2.43
2018-07-09T19:37:10.777Z,2.87
2018-07-09T19:39:38.080Z,3.20
2018-07-09T19:42:06.415Z,2.50
2018-07-09T19:44:33.914Z,2.40
2018-07-09T19:47:01.313Z,2.43
2018-07-09T19:49:31.191Z,2.70
2018-07-09T19:51:58.517Z,2.67
2018-07-09T19:54:25.791Z,2.63
2018-07-09T19:56:53.109Z,2.93
2018-07-09T19:59:20.362Z,2.93
2018-07-09T20:01:47.662Z,2.52
2018-07-09T20:04:15.010Z,2.60
2018-07-09T20:06:42.402Z,3.10
2018-07-09T20:09:15.090Z,2.97
2018-07-09T20:11:47.682Z,3.00
2018-07-09T20:14:20.366Z,2.70
2018-07-09T20:16:53.049Z,2.83
2018-07-09T20:19:20.369Z,3.02
2018-07-09T20:21:47.700Z,2.80
2018-07-09T20:24:15.041Z,2.80
2018-07-09T20:26:42.296Z,2.87
2018-07-09T20:29:09.570Z,2.83
2018-07-09T20:31:36.925Z,2.60
2018-07-09T20:34:04.254Z,2.98
2018-07-09T20:36:31.531Z,3.10
2018-07-09T20:38:58.806Z,2.83
2018-07-09T20:41:26.050Z,3.00
2018-07-09T20:43:54.330Z,2.62
2018-07-09T20:46:21.795Z,2.70
2018-07-09T20:48:49.019Z,2.60
2018-07-09T20:51:16.296Z,2.60
2018-07-09T20:53:43.658Z,2.70
2018-07-09T20:56:10.957Z,2.98
2018-07-09T20:58:38.209Z,2.80
2018-07-09T21:01:05.451Z,2.70
2018-07-09T21:03:32.782Z,2.60
2018-07-09T21:06:00.046Z,2.97
2018-07-09T21:08:27.346Z,2.40
2018-07-09T21:10:54.607Z,2.70
2018-07-09T21:13:21.894Z,2.60
2018-07-09T21:15:49.209Z,2.80
2018-07-09T21:18:16.444Z,2.77
2018-07-09T21:20:43.751Z,2.53
2018-07-09T21:23:11.130Z,2.80
2018-07-09T21:25:38.367Z,2.70
2018-07-09T21:28:05.648Z,3.23
2018-07-09T21:30:32.887Z,2.35
2018-07-09T21:33:00.449Z,2.87
2018-07-09T21:35:27.762Z,3.30
2018-07-09T21:37:55.185Z,3.10
2018-07-09T21:40:22.420Z,3.00
2018-07-09T21:42:49.681Z,3.50
2018-07-09T21:45:17.085Z,3.20
2018-07-09T21:47:44.375Z,2.90
2018-07-09T21:50:11.684Z,2.90
2018-07-09T21:52:38.997Z,2.65
2018-07-09T21:55:06.278Z,2.90
2018-07-09T21:57:33.530Z,2.77
2018-07-09T22:00:00.844Z,2.73
2018-07-09T22:02:28.077Z,3.53
2018-07-09T22:04:55.369Z,3.10
2018-07-09T22:07:22.637Z,3.07
2018-07-09T22:09:49.892Z,2.80
2018-07-09T22:12:17.167Z,2.70
2018-07-09T22:14:44.574Z,3.00
2018-07-09T22:17:11.806Z,3.40
2018-07-09T22:19:39.186Z,2.90
2018-07-09T22:22:06.469Z,3.00
2018-07-09T22:24:33.710Z,2.83
2018-07-09T22:27:01.039Z,3.10
2018-07-09T22:29:28.661Z,2.80
2018-07-09T22:31:56.992Z,2.83
2018-07-09T22:34:25.393Z,2.80
2018-07-09T22:36:53.717Z,3.08
2018-07-09T22:39:21.752Z,2.70
2018-07-09T22:41:50.049Z,3.10
2018-07-09T22:44:19.832Z,2.27
2018-07-09T22:46:48.425Z,3.00
2018-07-09T22:49:16.763Z,2.90
2018-07-09T22:51:45.747Z,2.70
2018-07-09T22:54:14.082Z,3.00
2018-07-09T22:56:42.426Z,3.20
2018-07-09T22:59:10.788Z,3.40
2018-07-09T23:01:39.110Z,3.63
2018-07-09T23:04:07.422Z,2.70
2018-07-09T23:06:35.777Z,3.30
2018-07-09T23:10:17.259Z,2.63
2018-07-09T23:13:24.222Z,2.87
2018-07-09T23:16:04.049Z,3.73
2018-07-09T23:18:58.787Z,3.20
2018-07-09T23:21:39.728Z,3.35
2018-07-09T23:24:07.039Z,3.30
2018-07-09T23:26:34.401Z,3.00
2018-07-09T23:29:01.739Z,3.13
2018-07-09T23:31:29.007Z,4.20
2018-07-09T23:33:56.552Z,3.30
2018-07-09T23:36:24.038Z,2.97
2018-07-09T23:38:52.141Z,2.90
2018-07-09T23:41:19.453Z,2.83
2018-07-09T23:43:46.700Z,3.17
2018-07-09T23:46:13.989Z,2.83
2018-07-09T23:48:42.295Z,2.70
2018-07-09T23:51:09.661Z,3.20
2018-07-09T23:53:36.888Z,2.75
2018-07-09T23:56:16.743Z,3.00
2018-07-09T23:59:54.145Z,3.30
